createdAt,value
2023-01-19T00:00:52.912Z,2.50
2023-01-19T00:03:20.523Z,2.60
2023-01-19T00:05:47.499Z,2.80
2023-01-19T00:08:15.129Z,2.70
2023-01-19T00:10:45.456Z,3.00
2023-01-19T00:13:13.137Z,1.80
2023-01-19T00:15:40.121Z,2.40
2023-01-19T00:18:08.036Z,2.80
2023-01-19T00:20:36.452Z,2.40
2023-01-19T00:23:04.640Z,2.60
2023-01-19T00:25:31.601Z,2.10
2023-01-19T00:28:00.594Z,2.20
2023-01-19T00:30:28.454Z,2.30
2023-01-19T00:32:55.782Z,2.30
2023-01-19T00:35:22.573Z,2.20
2023-01-19T00:37:49.325Z,2.10
2023-01-19T00:40:16.481Z,1.90
2023-01-19T00:42:48.295Z,2.70
2023-01-19T00:45:18.623Z,2.60
2023-01-19T00:47:46.945Z,2.20
2023-01-19T00:50:16.727Z,1.30
2023-01-19T00:52:44.879Z,1.40
2023-01-19T00:55:14.799Z,1.60
2023-01-19T00:57:42.901Z,2.00
2023-01-19T01:00:17.369Z,1.80
2023-01-19T01:02:44.668Z,1.10
2023-01-19T01:05:12.515Z,1.80
2023-01-19T01:07:41.681Z,1.60
2023-01-19T01:10:12.441Z,2.00
2023-01-19T01:12:39.739Z,1.70
2023-01-19T01:15:09.322Z,1.70
2023-01-19T01:17:36.610Z,1.80
2023-01-19T01:20:04.853Z,1.50
2023-01-19T01:22:31.737Z,1.90
2023-01-19T01:24:58.485Z,1.90
2023-01-19T01:27:25.254Z,1.70
2023-01-19T01:29:52.005Z,1.40
2023-01-19T01:32:18.772Z,1.30
2023-01-19T01:34:45.581Z,1.20
2023-01-19T01:37:12.356Z,1.70
2023-01-19T01:39:39.187Z,1.10
2023-01-19T01:42:17.753Z,1.10
2023-01-19T01:44:52.172Z,1.40
2023-01-19T01:47:37.100Z,1.30
2023-01-19T01:50:29.303Z,1.40
2023-01-19T01:53:14.989Z,2.10
2023-01-19T01:55:46.963Z,1.60
2023-01-19T01:58:16.489Z,1.50
2023-01-19T02:01:01.805Z,2.10
2023-01-19T02:03:28.926Z,1.50
2023-01-19T02:06:00.475Z,1.80
2023-01-19T02:08:54.156Z,1.50
2023-01-19T02:11:39.382Z,1.70
2023-01-19T02:14:06.790Z,1.80
2023-01-19T02:16:34.920Z,1.50
2023-01-19T02:19:01.742Z,1.50
2023-01-19T02:21:53.776Z,1.80
2023-01-19T02:24:21.023Z,1.90
2023-01-19T02:26:49.010Z,1.30
2023-01-19T02:29:22.840Z,1.40
2023-01-19T02:31:49.693Z,1.30
2023-01-19T02:34:19.415Z,1.40
2023-01-19T02:36:54.125Z,1.50
2023-01-19T02:39:56.056Z,1.70
2023-01-19T02:42:29.524Z,1.70
2023-01-19T02:44:57.457Z,1.40
2023-01-19T02:47:24.414Z,1.50
2023-01-19T02:49:59.726Z,1.50
2023-01-19T02:52:27.926Z,1.60
2023-01-19T02:55:18.107Z,1.80
2023-01-19T02:58:11.951Z,1.60
2023-01-19T03:01:00.948Z,1.90
2023-01-19T03:03:47.902Z,1.50
2023-01-19T03:06:36.795Z,2.00
2023-01-19T03:09:17.358Z,1.90
2023-01-19T03:11:55.228Z,1.50
2023-01-19T03:14:25.190Z,1.50
2023-01-19T03:16:57.776Z,1.60
2023-01-19T03:19:32.489Z,1.40
2023-01-19T03:22:04.153Z,1.80
2023-01-19T03:24:36.916Z,1.80
2023-01-19T03:27:15.207Z,2.00
2023-01-19T03:29:48.806Z,2.30
2023-01-19T03:32:18.395Z,2.30
2023-01-19T03:34:47.316Z,2.00
2023-01-19T03:37:16.701Z,1.90
2023-01-19T03:39:44.201Z,2.00
2023-01-19T03:42:15.501Z,2.30
2023-01-19T03:44:45.351Z,2.10
2023-01-19T03:47:14.992Z,1.70
2023-01-19T03:49:44.495Z,1.80
2023-01-19T03:52:12.795Z,2.00
2023-01-19T03:54:40.959Z,2.40
2023-01-19T03:57:07.977Z,2.10
2023-01-19T03:59:35.088Z,2.30
2023-01-19T04:02:01.959Z,2.20
2023-01-19T04:04:28.751Z,1.90
2023-01-19T04:06:55.484Z,2.30
2023-01-19T04:09:22.256Z,2.10
2023-01-19T04:11:49.020Z,2.20
2023-01-19T04:14:15.786Z,1.80
2023-01-19T04:16:42.837Z,2.20
2023-01-19T04:19:09.572Z,1.60
2023-01-19T04:21:36.332Z,2.10
2023-01-19T04:24:03.133Z,2.10
2023-01-19T04:26:29.962Z,1.80
2023-01-19T04:28:57.911Z,1.70
2023-01-19T04:31:24.760Z,1.60
2023-01-19T04:33:51.569Z,1.60
2023-01-19T04:36:18.565Z,1.50
2023-01-19T04:38:46.587Z,1.30
2023-01-19T04:41:13.392Z,1.10
2023-01-19T04:43:40.758Z,1.40
2023-01-19T04:46:07.690Z,1.30
2023-01-19T04:48:34.693Z,1.70
2023-01-19T04:51:01.588Z,1.70
2023-01-19T04:53:28.419Z,1.90
2023-01-19T04:55:55.427Z,1.60
2023-01-19T04:58:22.377Z,1.20
2023-01-19T05:00:51.130Z,1.30
2023-01-19T05:03:19.273Z,1.10
2023-01-19T05:05:46.402Z,1.10
2023-01-19T05:08:13.505Z,1.40
2023-01-19T05:10:40.272Z,2.10
2023-01-19T05:13:07.092Z,2.00
2023-01-19T05:15:33.878Z,1.30
2023-01-19T05:18:00.653Z,1.90
2023-01-19T05:20:27.467Z,1.90
2023-01-19T05:22:54.263Z,1.90
2023-01-19T05:25:21.111Z,2.60
2023-01-19T05:27:48.141Z,2.60
2023-01-19T05:30:15.376Z,2.50
2023-01-19T05:32:42.229Z,2.10
2023-01-19T05:35:09.831Z,2.30
2023-01-19T05:37:36.741Z,2.40
2023-01-19T05:40:03.971Z,1.90
2023-01-19T05:42:32.681Z,2.30
2023-01-19T05:44:59.756Z,2.30
2023-01-19T05:47:26.701Z,2.00
2023-01-19T05:49:53.514Z,1.70
2023-01-19T05:52:20.291Z,2.60
2023-01-19T05:54:48.196Z,2.30
2023-01-19T05:57:15.115Z,2.30
2023-01-19T05:59:41.864Z,1.70
2023-01-19T06:02:09.033Z,2.00
2023-01-19T06:04:35.878Z,2.30
2023-01-19T06:07:02.870Z,2.10
2023-01-19T06:09:29.657Z,2.40
2023-01-19T06:11:57.741Z,1.70
2023-01-19T06:14:25.097Z,1.70
2023-01-19T06:16:52.188Z,1.70
2023-01-19T06:19:19.048Z,1.10
2023-01-19T06:21:52.009Z,1.50
2023-01-19T06:24:19.279Z,1.40
2023-01-19T06:26:46.230Z,1.60
2023-01-19T06:29:13.685Z,1.30
2023-01-19T06:31:41.791Z,2.10
2023-01-19T06:34:09.207Z,1.30
2023-01-19T06:36:36.243Z,1.30
2023-01-19T06:39:05.741Z,1.20
2023-01-19T06:41:36.624Z,1.80
2023-01-19T06:44:03.738Z,1.10
2023-01-19T06:46:30.625Z,1.80
2023-01-19T06:48:57.687Z,1.70
2023-01-19T06:51:25.470Z,1.40
2023-01-19T06:53:52.238Z,2.00
2023-01-19T06:56:19.191Z,2.00
2023-01-19T06:58:50.450Z,1.30
2023-01-19T07:01:17.428Z,1.80
2023-01-19T07:03:46.177Z,1.80
2023-01-19T07:06:13.820Z,1.70
2023-01-19T07:08:40.617Z,1.60
2023-01-19T07:11:25.071Z,1.80
2023-01-19T07:13:58.686Z,1.20
2023-01-19T07:16:25.881Z,1.50
2023-01-19T07:18:52.823Z,1.30
2023-01-19T07:21:19.630Z,1.40
2023-01-19T07:23:50.028Z,2.00
2023-01-19T07:26:19.846Z,1.90
2023-01-19T07:28:48.327Z,1.70
2023-01-19T07:31:16.018Z,1.50
2023-01-19T07:33:43.010Z,1.20
2023-01-19T07:36:10.416Z,1.40
2023-01-19T07:38:37.271Z,1.70
2023-01-19T07:41:07.251Z,1.80
2023-01-19T07:43:34.653Z,2.30
2023-01-19T07:46:05.157Z,2.30
2023-01-19T07:48:31.935Z,2.00
2023-01-19T07:51:11.684Z,2.20
2023-01-19T07:53:39.926Z,1.40
2023-01-19T07:56:07.714Z,2.10
2023-01-19T07:58:34.574Z,1.90
2023-01-19T08:01:08.772Z,2.20
2023-01-19T08:03:35.815Z,1.20
2023-01-19T08:06:03.362Z,1.20
2023-01-19T08:08:32.364Z,1.80
2023-01-19T08:10:59.240Z,1.90
2023-01-19T08:13:27.020Z,1.90
2023-01-19T08:15:54.310Z,1.60
2023-01-19T08:18:21.723Z,1.90
2023-01-19T08:20:48.617Z,1.40
2023-01-19T08:23:15.396Z,1.60
2023-01-19T08:25:44.979Z,2.00
2023-01-19T08:28:16.242Z,1.50
2023-01-19T08:30:44.925Z,1.90
2023-01-19T08:33:13.040Z,1.70
2023-01-19T08:35:48.830Z,1.10
2023-01-19T08:38:15.661Z,1.40
2023-01-19T08:40:42.759Z,1.30
2023-01-19T08:43:13.516Z,1.60
2023-01-19T08:45:48.731Z,1.30
2023-01-19T08:48:18.569Z,1.60
2023-01-19T08:50:49.831Z,1.60
2023-01-19T08:53:16.936Z,1.50
2023-01-19T08:55:43.801Z,1.70
2023-01-19T08:58:10.738Z,1.70
2023-01-19T09:00:40.116Z,1.90
2023-01-19T09:03:09.188Z,1.60
2023-01-19T09:05:38.842Z,2.00
2023-01-19T09:08:10.441Z,1.90
2023-01-19T09:10:39.282Z,1.30
2023-01-19T09:13:10.844Z,1.30
2023-01-19T09:15:39.575Z,1.60
2023-01-19T09:18:10.323Z,1.60
2023-01-19T09:20:39.016Z,1.30
2023-01-19T09:23:06.268Z,2.00
2023-01-19T09:25:33.235Z,1.70
2023-01-19T09:28:00.834Z,1.60
2023-01-19T09:30:28.028Z,2.20
2023-01-19T09:32:55.070Z,1.90
2023-01-19T09:35:22.327Z,1.60
2023-01-19T09:37:49.136Z,1.70
2023-01-19T09:40:18.847Z,1.70
2023-01-19T09:42:53.677Z,1.30
2023-01-19T09:45:36.007Z,1.80
2023-01-19T09:48:12.537Z,1.60
2023-01-19T09:50:46.597Z,1.80
2023-01-19T09:53:33.569Z,1.90
2023-01-19T09:56:00.401Z,1.70
2023-01-19T09:58:27.485Z,1.60
2023-01-19T10:01:23.545Z,1.70
2023-01-19T10:04:03.960Z,1.80
2023-01-19T10:06:31.136Z,1.50
2023-01-19T10:09:38.948Z,1.50
2023-01-19T10:12:21.393Z,1.40
2023-01-19T10:15:11.280Z,1.90
2023-01-19T10:18:09.554Z,1.30
2023-01-19T10:20:42.155Z,1.50
2023-01-19T10:23:31.312Z,1.50
2023-01-19T10:26:06.147Z,1.80
2023-01-19T10:28:33.450Z,1.40
2023-01-19T10:31:00.921Z,1.40
2023-01-19T10:33:28.436Z,1.80
2023-01-19T10:35:55.558Z,1.50
2023-01-19T10:38:23.223Z,1.40
2023-01-19T10:41:04.578Z,1.20
2023-01-19T10:43:34.535Z,1.40
2023-01-19T10:46:06.034Z,1.30
2023-01-19T10:48:40.101Z,1.50
2023-01-19T10:51:14.497Z,1.20
2023-01-19T10:53:53.958Z,1.50
2023-01-19T10:56:34.766Z,1.50
2023-01-19T10:59:05.252Z,1.60
2023-01-19T11:01:36.880Z,1.90
2023-01-19T11:04:29.172Z,1.30
2023-01-19T11:07:21.022Z,1.70
2023-01-19T11:09:49.272Z,1.70
2023-01-19T11:12:23.153Z,1.80
2023-01-19T11:14:51.655Z,1.90
2023-01-19T11:17:25.766Z,1.80
2023-01-19T11:20:01.629Z,1.80
2023-01-19T11:22:32.975Z,2.20
2023-01-19T11:25:03.237Z,1.90
2023-01-19T11:27:34.819Z,1.80
2023-01-19T11:30:07.938Z,1.70
2023-01-19T11:32:36.956Z,1.70
2023-01-19T11:35:32.820Z,2.20
2023-01-19T11:38:12.515Z,2.40
2023-01-19T11:40:40.218Z,2.30
2023-01-19T11:43:12.587Z,1.80
2023-01-19T11:45:40.485Z,1.90
2023-01-19T11:48:15.947Z,2.00
2023-01-19T11:50:44.891Z,2.20
2023-01-19T11:53:19.183Z,2.00
2023-01-19T11:55:57.134Z,1.90
2023-01-19T11:58:25.798Z,2.00
2023-01-19T12:01:17.719Z,1.80
2023-01-19T12:03:54.596Z,1.90
2023-01-19T12:06:44.755Z,2.60
2023-01-19T12:09:20.241Z,2.40
2023-01-19T12:11:54.790Z,2.60
2023-01-19T12:14:41.470Z,3.10
2023-01-19T12:17:31.065Z,2.40
2023-01-19T12:20:37.123Z,2.50
2023-01-19T12:23:28.492Z,2.60
2023-01-19T12:26:16.492Z,2.60
2023-01-19T12:28:48.085Z,2.40
2023-01-19T12:31:18.197Z,2.40
2023-01-19T12:33:46.046Z,2.20
2023-01-19T12:36:33.122Z,2.30
2023-01-19T12:39:19.896Z,2.20
2023-01-19T12:41:48.338Z,2.50
2023-01-19T12:44:21.679Z,2.60
2023-01-19T12:46:50.248Z,2.60
2023-01-19T12:49:44.890Z,2.90
2023-01-19T12:52:41.503Z,2.60
2023-01-19T12:55:14.197Z,2.70
2023-01-19T12:57:48.429Z,2.60
2023-01-19T13:00:24.292Z,2.60
2023-01-19T13:02:57.078Z,3.10
2023-01-19T13:05:38.843Z,2.70
2023-01-19T13:08:06.183Z,2.70
2023-01-19T13:10:59.213Z,2.80
2023-01-19T13:13:49.980Z,2.80
2023-01-19T13:16:19.901Z,2.40
2023-01-19T13:19:14.999Z,2.20
2023-01-19T13:21:47.948Z,2.20
2023-01-19T13:24:17.855Z,2.50
2023-01-19T13:26:50.659Z,3.10
2023-01-19T13:29:28.254Z,2.50
2023-01-19T13:32:02.279Z,2.70
2023-01-19T13:34:35.756Z,2.90
2023-01-19T13:37:04.320Z,3.20
2023-01-19T13:39:36.893Z,3.20
2023-01-19T13:42:15.442Z,3.20
2023-01-19T13:44:52.204Z,3.40
2023-01-19T13:47:28.544Z,3.40
2023-01-19T13:49:59.276Z,3.80
2023-01-19T13:52:29.115Z,4.00
2023-01-19T13:55:01.157Z,3.10
2023-01-19T13:57:32.972Z,2.80
2023-01-19T14:00:07.085Z,2.90
2023-01-19T14:02:34.329Z,3.00
2023-01-19T14:05:28.815Z,3.40
2023-01-19T14:08:13.443Z,3.30
2023-01-19T14:10:56.272Z,3.60
2023-01-19T14:13:30.768Z,3.10
2023-01-19T14:16:01.212Z,3.20
2023-01-19T14:18:33.980Z,3.60
2023-01-19T14:21:02.152Z,3.60
2023-01-19T14:23:44.626Z,3.70
2023-01-19T14:26:48.681Z,3.40
2023-01-19T14:29:33.081Z,4.00
2023-01-19T14:32:23.187Z,3.40
2023-01-19T14:34:54.076Z,3.50
2023-01-19T14:37:29.580Z,3.20
2023-01-19T14:40:26.751Z,3.00
2023-01-19T14:42:54.659Z,3.10
2023-01-19T14:45:32.311Z,3.20
2023-01-19T14:48:19.370Z,3.20
2023-01-19T14:51:02.059Z,3.20
2023-01-19T14:53:38.270Z,3.10
2023-01-19T14:56:06.548Z,3.20
2023-01-19T14:58:35.462Z,2.70
2023-01-19T15:01:02.926Z,3.10
2023-01-19T15:03:43.434Z,2.60
2023-01-19T15:06:18.983Z,2.90
2023-01-19T15:08:47.255Z,2.90
2023-01-19T15:11:34.140Z,2.80
2023-01-19T15:14:02.462Z,3.20
2023-01-19T15:16:32.986Z,2.70
2023-01-19T15:19:00.186Z,2.90
2023-01-19T15:21:27.028Z,3.00
2023-01-19T15:23:54.718Z,2.90
2023-01-19T15:26:24.788Z,3.20
2023-01-19T15:28:53.404Z,3.00
2023-01-19T15:31:23.684Z,3.10
2023-01-19T15:33:50.522Z,2.80
2023-01-19T15:36:19.992Z,2.90
2023-01-19T15:38:47.856Z,2.60
2023-01-19T15:41:24.315Z,3.10
2023-01-19T15:43:51.502Z,3.10
2023-01-19T15:46:20.785Z,3.10
2023-01-19T15:48:49.061Z,3.20
2023-01-19T15:51:19.877Z,2.90
2023-01-19T15:53:47.424Z,3.00
2023-01-19T15:56:21.040Z,3.30
2023-01-19T15:58:48.231Z,3.10
2023-01-19T16:01:22.316Z,3.50
2023-01-19T16:03:50.358Z,3.20
2023-01-19T16:06:17.936Z,3.10
2023-01-19T16:08:45.351Z,3.30
2023-01-19T16:11:15.520Z,3.30
2023-01-19T16:13:46.229Z,3.30
2023-01-19T16:16:19.935Z,3.40
2023-01-19T16:18:47.308Z,3.70
2023-01-19T16:21:14.202Z,3.90
2023-01-19T16:23:41.026Z,4.10
2023-01-19T16:26:24.129Z,4.20
2023-01-19T16:28:50.974Z,4.10
2023-01-19T16:31:17.822Z,3.90
2023-01-19T16:33:45.718Z,4.10
2023-01-19T16:36:27.483Z,3.80
2023-01-19T16:38:55.066Z,3.90
2023-01-19T16:41:21.876Z,3.80
2023-01-19T16:43:53.997Z,4.00
2023-01-19T16:46:27.955Z,3.70
2023-01-19T16:49:00.831Z,3.70
2023-01-19T16:51:28.045Z,3.50
2023-01-19T16:53:54.950Z,3.30
2023-01-19T16:56:21.837Z,3.50
2023-01-19T16:58:48.672Z,4.10
2023-01-19T17:01:20.182Z,4.30
2023-01-19T17:03:47.438Z,4.30
2023-01-19T17:06:22.707Z,4.30
2023-01-19T17:08:50.691Z,4.40
2023-01-19T17:11:26.917Z,4.40
2023-01-19T17:14:01.169Z,4.30
2023-01-19T17:16:31.163Z,4.40
2023-01-19T17:19:00.108Z,4.40
2023-01-19T17:21:27.046Z,4.40
2023-01-19T17:23:55.181Z,3.90
2023-01-19T17:26:25.653Z,3.80
2023-01-19T17:28:52.601Z,4.20
2023-01-19T17:31:22.129Z,4.40
2023-01-19T17:33:51.019Z,4.50
2023-01-19T17:36:22.446Z,4.20
2023-01-19T17:38:49.905Z,4.60
2023-01-19T17:41:21.618Z,4.60
2023-01-19T17:43:52.633Z,4.40
2023-01-19T17:46:22.632Z,4.20
2023-01-19T17:48:58.762Z,4.10
2023-01-19T17:51:26.497Z,5.10
2023-01-19T17:53:54.192Z,4.70
2023-01-19T17:56:29.378Z,4.80
2023-01-19T17:58:57.726Z,4.90
2023-01-19T18:01:28.206Z,4.40
2023-01-19T18:03:55.490Z,4.40
2023-01-19T18:06:22.840Z,4.30
2023-01-19T18:08:50.604Z,4.10
2023-01-19T18:11:19.799Z,4.20
2023-01-19T18:13:48.450Z,4.40
2023-01-19T18:16:35.881Z,4.30
2023-01-19T18:19:02.737Z,4.10
2023-01-19T18:21:30.432Z,3.70
2023-01-19T18:24:06.065Z,4.00
2023-01-19T18:26:34.728Z,3.70
2023-01-19T18:29:01.656Z,4.10
2023-01-19T18:31:28.771Z,4.30
2023-01-19T18:33:55.856Z,3.90
2023-01-19T18:36:23.004Z,3.90
2023-01-19T18:38:50.147Z,3.80
2023-01-19T18:41:20.159Z,3.70
2023-01-19T18:43:47.868Z,4.20
2023-01-19T18:46:15.568Z,4.40
2023-01-19T18:48:42.478Z,4.40
2023-01-19T18:51:15.038Z,4.20
2023-01-19T18:53:42.673Z,4.40
2023-01-19T18:56:14.335Z,4.70
2023-01-19T18:58:41.595Z,4.70
2023-01-19T19:01:32.395Z,4.60
2023-01-19T19:03:59.732Z,4.60
2023-01-19T19:06:27.195Z,4.50
2023-01-19T19:09:12.004Z,4.70
2023-01-19T19:11:38.764Z,4.80
2023-01-19T19:14:06.502Z,4.70
2023-01-19T19:16:36.181Z,4.80
2023-01-19T19:19:03.897Z,4.90
2023-01-19T19:21:30.709Z,4.80
2023-01-19T19:23:58.605Z,5.00
2023-01-19T19:26:28.255Z,5.00
2023-01-19T19:28:55.549Z,5.10
2023-01-19T19:31:25.895Z,5.10
2023-01-19T19:33:53.679Z,5.50
2023-01-19T19:36:21.883Z,5.30
2023-01-19T19:38:49.966Z,5.20
2023-01-19T19:41:26.867Z,5.00
2023-01-19T19:43:55.016Z,4.80
2023-01-19T19:46:24.209Z,4.70
2023-01-19T19:48:52.171Z,4.80
2023-01-19T19:51:25.702Z,4.60
2023-01-19T19:53:54.842Z,4.70
2023-01-19T19:56:24.931Z,4.60
2023-01-19T19:58:54.392Z,4.40
2023-01-19T20:01:27.298Z,4.30
2023-01-19T20:03:56.717Z,4.10
2023-01-19T20:06:26.482Z,4.10
2023-01-19T20:08:55.910Z,4.30
2023-01-19T20:11:26.716Z,4.40
2023-01-19T20:13:53.902Z,4.60
2023-01-19T20:16:23.208Z,4.30
2023-01-19T20:18:53.952Z,4.30
2023-01-19T20:21:33.365Z,4.00
2023-01-19T20:24:07.119Z,4.10
2023-01-19T20:26:38.715Z,4.10
2023-01-19T20:29:06.853Z,4.30
2023-01-19T20:31:38.869Z,4.10
2023-01-19T20:34:09.047Z,4.20
2023-01-19T20:36:36.354Z,4.30
2023-01-19T20:39:08.501Z,4.50
2023-01-19T20:41:43.216Z,4.40
2023-01-19T20:44:17.015Z,4.20
2023-01-19T20:46:43.898Z,4.10
2023-01-19T20:49:11.128Z,4.10
2023-01-19T20:51:43.026Z,4.40
2023-01-19T20:54:11.554Z,4.10
2023-01-19T20:56:38.642Z,4.20
2023-01-19T20:59:05.764Z,4.10
2023-01-19T21:01:32.742Z,4.20
2023-01-19T21:03:59.635Z,4.10
2023-01-19T21:06:26.478Z,4.10
2023-01-19T21:08:53.562Z,4.30
2023-01-19T21:11:21.389Z,4.40
2023-01-19T21:13:49.057Z,4.00
2023-01-19T21:16:16.165Z,4.30
2023-01-19T21:18:43.626Z,4.40
2023-01-19T21:21:20.756Z,4.10
2023-01-19T21:23:52.380Z,3.90
2023-01-19T21:26:19.145Z,3.80
2023-01-19T21:28:45.924Z,4.30
2023-01-19T21:31:14.322Z,4.10
2023-01-19T21:33:42.557Z,4.30
2023-01-19T21:36:11.066Z,4.10
2023-01-19T21:38:39.169Z,4.10
2023-01-19T21:41:10.953Z,4.50
2023-01-19T21:43:40.809Z,4.00
2023-01-19T21:46:21.190Z,3.90
2023-01-19T21:48:48.056Z,4.20
2023-01-19T21:51:15.535Z,3.80
2023-01-19T21:53:42.933Z,4.10
2023-01-19T21:56:11.412Z,4.10
2023-01-19T21:58:38.261Z,4.30
2023-01-19T22:01:12.589Z,4.30
2023-01-19T22:03:40.800Z,4.20
2023-01-19T22:06:11.413Z,3.80
2023-01-19T22:08:38.658Z,3.50
2023-01-19T22:11:07.986Z,3.40
2023-01-19T22:13:36.076Z,3.90
2023-01-19T22:16:05.472Z,4.00
2023-01-19T22:18:32.916Z,4.30
2023-01-19T22:21:22.232Z,4.20
2023-01-19T22:23:55.235Z,4.40
2023-01-19T22:26:22.268Z,4.30
2023-01-19T22:28:54.800Z,4.10
2023-01-19T22:31:22.142Z,4.20
2023-01-19T22:33:49.255Z,4.00
2023-01-19T22:36:25.739Z,4.00
2023-01-19T22:38:58.434Z,3.90
2023-01-19T22:41:34.812Z,3.90
2023-01-19T22:44:07.066Z,4.10
2023-01-19T22:46:36.569Z,4.20
2023-01-19T22:49:05.149Z,4.50
2023-01-19T22:51:33.342Z,4.60
2023-01-19T22:54:00.818Z,4.40
2023-01-19T22:56:31.217Z,4.30
2023-01-19T22:58:58.741Z,4.60
2023-01-19T23:01:36.540Z,4.60
2023-01-19T23:04:05.428Z,4.60
2023-01-19T23:06:35.415Z,4.20
2023-01-19T23:09:07.210Z,4.40
2023-01-19T23:11:40.539Z,4.30
2023-01-19T23:14:11.522Z,4.50
2023-01-19T23:16:38.332Z,4.60
2023-01-19T23:19:05.284Z,4.60
2023-01-19T23:21:32.645Z,4.60
2023-01-19T23:24:03.093Z,4.60
2023-01-19T23:26:31.517Z,4.40
2023-01-19T23:29:01.694Z,4.30
2023-01-19T23:31:32.343Z,4.20
2023-01-19T23:34:08.552Z,4.20
2023-01-19T23:36:38.078Z,4.20
2023-01-19T23:39:10.819Z,4.40
2023-01-19T23:41:37.769Z,4.20
2023-01-19T23:44:04.862Z,4.00
2023-01-19T23:46:31.708Z,4.20
2023-01-19T23:48:58.641Z,4.10
2023-01-19T23:51:29.127Z,6.00
2023-01-19T23:53:58.180Z,5.70
2023-01-19T23:56:32.829Z,5.20
2023-01-19T23:59:07.297Z,4.90
